Time;durP1;ratioP1;P1;durP2;ratioP2;P2;SDS_P1;SDS_P2;PMS_P1;PMS_P2;Temp;Humidity;BMP_temperature;BMP_pressure;BME280_temperature;BME280_humidity;BME280_pressure;Samples;Min_cycle;Max_cycle;Signal;HPM_P1;HPM_P2
2021/07/13 00:01:16;;;;;;;3.30;3.10;;;;;;;18.11;96.63;97271.81;4983689;28;20205;-69
2021/07/13 00:03:44;;;;;;;3.30;3.10;;;;;;;18.05;96.31;97270.06;4986719;28;20221;-69
2021/07/13 00:06:13;;;;;;;5.03;3.13;;;;;;;18.04;97.27;97269.22;4986446;28;20197;-69
2021/07/13 00:08:41;;;;;;;2.90;2.80;;;;;;;17.96;98.02;97268.69;4983512;28;20592;-69
2021/07/13 00:11:09;;;;;;;3.27;3.07;;;;;;;17.94;97.97;97259.03;4984370;28;20213;-69
2021/07/13 00:13:37;;;;;;;3.60;3.40;;;;;;;17.80;99.82;97260.28;4983329;28;20240;-68
2021/07/13 00:16:06;;;;;;;3.37;3.17;;;;;;;17.78;100.00;97257.00;4985062;28;20202;-69
2021/07/13 00:18:34;;;;;;;3.93;3.63;;;;;;;17.63;100.00;97266.28;4982937;28;20297;-69
2021/07/13 00:21:02;;;;;;;3.53;3.23;;;;;;;17.54;100.00;97248.88;4984426;28;20214;-68
2021/07/13 00:23:31;;;;;;;3.70;3.40;;;;;;;17.70;100.00;97246.63;4982068;28;20233;-70
2021/07/13 00:25:59;;;;;;;3.60;3.40;;;;;;;17.78;100.00;97232.91;4982849;28;20221;-69
2021/07/13 00:28:28;;;;;;;3.33;3.13;;;;;;;17.67;100.00;97217.63;4984674;28;20216;-70
2021/07/13 00:30:55;;;;;;;3.60;3.40;;;;;;;17.43;100.00;97217.53;4982696;28;20206;-70
2021/07/13 00:33:24;;;;;;;3.60;3.40;;;;;;;17.22;100.00;97222.31;4981422;28;20296;-70
2021/07/13 00:35:52;;;;;;;3.70;3.50;;;;;;;17.22;100.00;97227.66;4984116;28;20210;-68
2021/07/13 00:38:20;;;;;;;3.50;3.20;;;;;;;17.04;100.00;97226.66;4985839;28;20702;-68
2021/07/13 00:40:50;;;;;;;3.50;3.30;;;;;;;16.99;100.00;97231.03;4985255;28;20822;-70
2021/07/13 00:43:18;;;;;;;3.80;3.60;;;;;;;16.92;100.00;97229.25;4981483;28;20229;-69
2021/07/13 00:45:46;;;;;;;3.77;3.50;;;;;;;16.88;100.00;97246.78;4979756;28;20705;-68
2021/07/13 00:48:14;;;;;;;3.50;3.30;;;;;;;16.97;100.00;97230.44;4985074;28;20209;-69
2021/07/13 00:50:44;;;;;;;4.27;3.90;;;;;;;16.97;100.00;97231.25;4982221;28;20214;-68
2021/07/13 00:53:12;;;;;;;6.30;4.27;;;;;;;17.03;100.00;97232.22;4981487;28;20229;-70
2021/07/13 00:55:40;;;;;;;4.77;3.50;;;;;;;16.96;100.00;97244.84;4984619;28;20209;-69
2021/07/13 00:58:09;;;;;;;4.00;3.67;;;;;;;16.88;100.00;97238.75;4980833;28;20225;-69
2021/07/13 01:00:37;;;;;;;4.73;4.33;;;;;;;17.03;100.00;97222.34;4981957;28;20210;-68
2021/07/13 01:03:06;;;;;;;3.57;3.30;;;;;;;17.18;100.00;97224.66;4983137;28;20222;-69
2021/07/13 01:05:38;;;;;;;3.97;3.77;;;;;;;17.06;100.00;97237.16;4979294;28;20213;-71
2021/07/13 01:08:14;;;;;;;3.50;3.30;;;;;;;17.22;100.00;97246.41;4982207;28;20202;-70
2021/07/13 01:10:48;;;;;;;3.80;3.60;;;;;;;17.12;100.00;97256.84;4983960;28;20771;-71
2021/07/13 01:13:27;;;;;;;3.63;3.40;;;;;;;17.00;100.00;97240.72;4982965;28;20224;-69
2021/07/13 01:16:00;;;;;;;4.67;4.37;;;;;;;16.90;100.00;97222.50;4980688;28;20209;-69
2021/07/13 01:18:32;;;;;;;4.13;3.93;;;;;;;17.10;100.00;97216.09;4981964;28;20201;-69
2021/07/13 01:21:30;;;;;;;4.83;4.43;;;;;;;17.16;100.00;97221.38;4983679;28;20216;-70
2021/07/13 01:24:21;;;;;;;4.40;4.20;;;;;;;16.99;100.00;97218.50;4935687;28;20602;-69
2021/07/13 01:27:01;;;;;;;4.43;3.97;;;;;;;17.02;100.00;97223.41;4981987;28;20216;-71
2021/07/13 01:29:32;;;;;;;4.30;4.00;;;;;;;16.92;100.00;97212.38;4982821;28;20334;-71
2021/07/13 01:32:00;;;;;;;4.40;4.00;;;;;;;16.84;100.00;97207.31;4979736;28;20213;-71
2021/07/13 01:34:33;;;;;;;4.93;4.53;;;;;;;17.19;100.00;97187.97;4980770;28;20261;-70
2021/07/13 01:37:03;;;;;;;4.03;3.80;;;;;;;17.37;100.00;97171.03;4981410;28;20202;-69
2021/07/13 01:39:32;;;;;;;4.73;4.43;;;;;;;17.10;100.00;97165.25;4982097;28;20209;-68
2021/07/13 01:42:04;;;;;;;4.47;4.07;;;;;;;17.17;100.00;97158.75;4984143;28;20214;-69
2021/07/13 01:44:34;;;;;;;4.03;3.73;;;;;;;17.16;100.00;97156.31;4980994;28;20536;-71
2021/07/13 01:47:03;;;;;;;4.70;4.40;;;;;;;17.50;100.00;97140.56;4981690;28;20213;-68
2021/07/13 01:49:31;;;;;;;5.47;5.10;;;;;;;17.45;100.00;97129.72;4982927;28;20237;-69
2021/07/13 01:51:59;;;;;;;5.27;4.60;;;;;;;17.38;100.00;97121.00;4981456;28;20225;-69
2021/07/13 01:54:28;;;;;;;5.33;5.03;;;;;;;17.34;100.00;97112.59;4981594;28;20259;-70
2021/07/13 01:57:00;;;;;;;5.57;5.07;;;;;;;17.60;100.00;97116.69;4980186;28;20217;-69
2021/07/13 01:59:28;;;;;;;5.30;4.97;;;;;;;17.80;100.00;97126.28;4982015;28;20197;-70
2021/07/13 02:02:00;;;;;;;4.90;4.47;;;;;;;17.89;99.12;97126.78;4982806;28;20216;-68
2021/07/13 02:04:30;;;;;;;6.80;6.20;;;;;;;17.91;98.48;97125.47;4979919;28;20225;-68
2021/07/13 02:06:59;;;;;;;6.10;5.50;;;;;;;17.90;99.89;97131.88;4982016;28;20213;-69
2021/07/13 02:09:28;;;;;;;6.20;4.83;;;;;;;17.71;100.00;97133.06;4981378;28;20212;-68
2021/07/13 02:11:57;;;;;;;4.60;4.30;;;;;;;17.57;100.00;97154.66;4983829;28;20241;-69
2021/07/13 02:14:25;;;;;;;4.03;3.83;;;;;;;17.55;100.00;97172.84;4980899;28;20226;-69
2021/07/13 02:16:53;;;;;;;4.03;3.83;;;;;;;17.41;100.00;97193.63;4982864;28;20217;-69
2021/07/13 02:19:25;;;;;;;4.50;4.23;;;;;;;17.41;100.00;97214.25;4983961;28;20564;-70
2021/07/13 02:21:53;;;;;;;5.47;4.97;;;;;;;17.31;100.00;97207.59;4982029;28;20212;-68
2021/07/13 02:24:21;;;;;;;4.27;3.97;;;;;;;17.25;100.00;97202.31;4983172;28;20206;-69
2021/07/13 02:26:52;;;;;;;5.17;4.70;;;;;;;17.19;100.00;97206.72;4982625;28;20202;-70
2021/07/13 02:29:23;;;;;;;4.40;4.20;;;;;;;17.24;100.00;97206.03;4978354;28;20197;-71
2021/07/13 02:31:55;;;;;;;4.67;4.37;;;;;;;17.26;100.00;97204.78;4986405;28;20488;-69
2021/07/13 02:34:27;;;;;;;4.77;4.47;;;;;;;17.18;100.00;97194.38;4980055;28;20230;-70
2021/07/13 02:36:59;;;;;;;4.93;4.53;;;;;;;17.36;100.00;97185.47;4984361;28;20213;-69
2021/07/13 02:39:28;;;;;;;4.93;4.63;;;;;;;17.25;100.00;97195.13;4983560;28;20210;-68
2021/07/13 02:41:56;;;;;;;5.20;3.63;;;;;;;17.26;100.00;97202.09;4982149;28;20206;-69
2021/07/13 02:44:25;;;;;;;4.10;3.80;;;;;;;17.29;100.00;97198.97;4984401;28;20194;-67
2021/07/13 02:46:53;;;;;;;9.07;8.13;;;;;;;17.25;100.00;97200.47;4988601;28;20214;-71
2021/07/13 02:49:23;;;;;;;5.03;4.73;;;;;;;17.20;100.00;97184.25;4987614;28;20213;-70
2021/07/13 02:51:53;;;;;;;13.87;12.40;;;;;;;17.21;100.00;97183.19;4985100;28;20495;-69
2021/07/13 02:54:23;;;;;;;4.63;4.23;;;;;;;17.20;100.00;97178.91;4979732;28;20233;-70
2021/07/13 02:56:52;;;;;;;7.57;6.43;;;;;;;17.32;100.00;97173.59;4980221;28;20202;-69
2021/07/13 02:59:23;;;;;;;6.70;6.00;;;;;;;17.73;100.00;97184.53;4987031;28;20201;-71
2021/07/13 03:01:51;;;;;;;5.97;5.47;;;;;;;17.57;100.00;97186.81;4981603;28;20224;-69
2021/07/13 03:04:20;;;;;;;4.47;4.17;;;;;;;17.38;100.00;97183.38;4984888;28;20212;-69
2021/07/13 03:06:49;;;;;;;4.53;4.17;;;;;;;17.25;100.00;97192.44;4983238;28;20205;-70
2021/07/13 03:09:18;;;;;;;5.90;4.00;;;;;;;17.19;100.00;97199.50;4986365;28;20212;-69
2021/07/13 03:11:46;;;;;;;4.53;4.23;;;;;;;17.12;100.00;97192.59;4984483;28;20684;-70
2021/07/13 03:14:16;;;;;;;3.80;3.60;;;;;;;17.09;100.00;97191.22;4982780;28;20233;-69
2021/07/13 03:16:45;;;;;;;4.53;4.13;;;;;;;17.02;100.00;97190.44;4982593;28;20500;-69
2021/07/13 03:19:13;;;;;;;4.97;4.00;;;;;;;16.92;100.00;97174.91;4991021;28;20206;-68
2021/07/13 03:21:43;;;;;;;4.67;4.23;;;;;;;16.88;100.00;97179.09;4985255;28;20206;-69
2021/07/13 03:24:12;;;;;;;4.93;4.50;;;;;;;16.83;100.00;97170.88;4984114;28;20789;-69
2021/07/13 03:26:43;;;;;;;6.60;5.97;;;;;;;16.83;100.00;97166.38;4983295;28;20206;-70
2021/07/13 03:29:13;;;;;;;10.57;4.93;;;;;;;16.90;100.00;97166.28;4982695;28;20205;-68
2021/07/13 03:31:42;;;;;;;6.17;5.77;;;;;;;16.74;100.00;97159.69;4984928;28;20217;-70
2021/07/13 03:34:12;;;;;;;5.43;4.73;;;;;;;16.96;100.00;97149.34;4979580;28;20233;-69
2021/07/13 03:36:40;;;;;;;5.47;4.70;;;;;;;17.24;100.00;97136.44;4983201;28;20213;-68
2021/07/13 03:39:09;;;;;;;5.23;4.67;;;;;;;17.24;100.00;97105.13;4982240;28;20209;-69
2021/07/13 03:41:37;;;;;;;5.80;4.53;;;;;;;17.20;100.00;97083.34;4981905;28;20642;-71
2021/07/13 03:44:07;;;;;;;7.07;6.03;;;;;;;17.06;100.00;97069.34;4981452;28;20726;-70
2021/07/13 03:46:36;;;;;;;5.67;5.27;;;;;;;17.02;100.00;97078.88;4987457;28;20209;-68
2021/07/13 03:49:05;;;;;;;4.97;4.57;;;;;;;17.07;100.00;97070.16;4981585;28;20209;-69
2021/07/13 03:51:38;;;;;;;4.43;4.07;;;;;;;17.19;100.00;97065.66;4988147;28;20675;-69
2021/07/13 03:54:08;;;;;;;4.60;4.27;;;;;;;17.27;100.00;97061.00;4984630;28;20229;-69
2021/07/13 03:56:36;;;;;;;4.37;4.07;;;;;;;17.28;100.00;97042.03;4982047;28;20589;-68
2021/07/13 03:59:04;;;;;;;5.20;4.77;;;;;;;17.41;100.00;97029.47;4986131;28;20209;-72
2021/07/13 04:01:33;;;;;;;4.97;4.57;;;;;;;17.38;100.00;97049.50;4980532;28;20717;-67
2021/07/13 04:04:02;;;;;;;5.33;4.93;;;;;;;17.44;100.00;97058.47;4982161;28;20322;-71
2021/07/13 04:06:30;;;;;;;4.23;3.93;;;;;;;17.54;100.00;97066.75;4980443;28;20201;-69
2021/07/13 04:08:58;;;;;;;7.33;6.53;;;;;;;17.46;100.00;97080.47;4985246;28;20214;-70
2021/07/13 04:11:28;;;;;;;5.77;4.73;;;;;;;17.41;100.00;97099.91;4986359;28;20206;-73
2021/07/13 04:13:56;;;;;;;5.27;4.17;;;;;;;17.30;100.00;97114.91;4985341;28;20488;-71
2021/07/13 04:16:24;;;;;;;4.80;3.77;;;;;;;17.31;100.00;97123.75;4980767;28;20341;-73
2021/07/13 04:18:53;;;;;;;4.43;4.10;;;;;;;17.24;100.00;97129.22;4987182;28;20740;-73
2021/07/13 04:21:22;;;;;;;4.57;4.27;;;;;;;17.19;100.00;97132.56;4983763;28;20232;-70
2021/07/13 04:23:50;;;;;;;4.77;4.43;;;;;;;17.20;100.00;97117.31;4985957;28;20252;-71
2021/07/13 04:26:18;;;;;;;4.60;4.30;;;;;;;17.46;100.00;97120.66;4979604;28;20202;-72
2021/07/13 04:28:46;;;;;;;4.93;4.60;;;;;;;17.24;100.00;97123.88;4983578;28;20210;-71
2021/07/13 04:31:14;;;;;;;4.83;4.40;;;;;;;17.08;100.00;97122.66;4982146;28;20217;-71
2021/07/13 04:33:42;;;;;;;4.37;4.10;;;;;;;16.93;100.00;97131.06;4981878;28;20237;-72
2021/07/13 04:36:11;;;;;;;4.70;4.40;;;;;;;16.87;100.00;97119.38;4980969;28;20235;-71
2021/07/13 04:38:41;;;;;;;4.83;4.47;;;;;;;16.84;100.00;97124.38;4986864;28;20205;-71
2021/07/13 04:41:09;;;;;;;4.47;4.27;;;;;;;16.91;100.00;97131.28;4978457;28;20205;-71
2021/07/13 04:43:37;;;;;;;6.17;5.40;;;;;;;16.98;100.00;97141.09;4989684;28;20237;-70
2021/07/13 04:46:05;;;;;;;4.47;4.17;;;;;;;16.99;100.00;97135.53;4984720;28;20210;-71
2021/07/13 04:48:33;;;;;;;6.60;5.90;;;;;;;17.15;100.00;97130.56;4982851;28;20602;-72
2021/07/13 04:51:01;;;;;;;6.67;5.07;;;;;;;17.06;100.00;97125.53;4982825;28;20210;-71
2021/07/13 04:53:31;;;;;;;6.20;5.80;;;;;;;17.09;100.00;97129.63;4981727;28;20226;-69
2021/07/13 04:55:59;;;;;;;5.87;5.40;;;;;;;17.26;100.00;97135.16;4982735;28;20624;-69
2021/07/13 04:58:27;;;;;;;4.93;4.63;;;;;;;17.27;100.00;97131.44;4985029;28;20288;-72
2021/07/13 05:00:55;;;;;;;5.07;4.67;;;;;;;17.28;100.00;97129.56;4980592;28;20213;-69
2021/07/13 05:03:23;;;;;;;5.03;4.67;;;;;;;17.25;100.00;97130.88;4976230;28;20222;-72
2021/07/13 05:05:52;;;;;;;5.47;4.97;;;;;;;17.33;100.00;97127.84;4982219;28;20234;-70
2021/07/13 05:08:21;;;;;;;4.77;4.37;;;;;;;17.44;100.00;97123.56;4985269;28;20737;-71
2021/07/13 05:10:51;;;;;;;5.20;4.70;;;;;;;17.55;100.00;97132.66;4986088;28;20218;-71
2021/07/13 05:13:19;;;;;;;4.67;4.27;;;;;;;17.61;100.00;97125.56;4977565;28;20229;-70
2021/07/13 05:15:47;;;;;;;4.90;4.57;;;;;;;17.66;100.00;97114.97;4986200;28;20225;-69
2021/07/13 05:18:16;;;;;;;4.73;4.43;;;;;;;17.82;100.00;97108.13;4980233;28;20209;-70
2021/07/13 05:20:47;;;;;;;5.07;4.77;;;;;;;17.79;100.00;97116.63;4986687;28;20601;-69
2021/07/13 05:23:15;;;;;;;4.70;4.30;;;;;;;17.87;100.00;97108.22;4984833;28;20228;-70
2021/07/13 05:25:43;;;;;;;6.17;4.80;;;;;;;17.91;100.00;97114.75;4981403;28;20229;-70
2021/07/13 05:28:13;;;;;;;5.60;4.80;;;;;;;18.15;100.00;97112.09;4982387;28;20963;-69
2021/07/13 05:30:42;;;;;;;4.70;4.40;;;;;;;18.42;100.00;97100.88;4984005;28;20394;-72
2021/07/13 05:33:11;;;;;;;5.30;5.00;;;;;;;18.43;100.00;97104.38;4979505;28;20635;-69
2021/07/13 05:35:40;;;;;;;4.17;3.97;;;;;;;18.54;100.00;97108.09;4983185;28;20709;-69
2021/07/13 05:38:08;;;;;;;4.67;4.23;;;;;;;18.52;100.00;97106.44;4980389;28;20377;-70
2021/07/13 05:40:36;;;;;;;4.40;4.13;;;;;;;18.50;98.99;97103.19;4982905;28;20670;-71
2021/07/13 05:43:04;;;;;;;4.97;4.67;;;;;;;18.50;99.25;97105.88;4985122;28;20229;-71
2021/07/13 05:45:33;;;;;;;4.07;3.87;;;;;;;18.63;99.08;97106.66;4979408;28;20201;-70
2021/07/13 05:48:01;;;;;;;4.27;4.00;;;;;;;18.54;98.39;97106.19;4985412;28;20431;-70
2021/07/13 05:50:29;;;;;;;4.87;4.47;;;;;;;18.66;95.61;97109.69;4982046;28;20209;-72
2021/07/13 05:52:57;;;;;;;4.93;4.53;;;;;;;18.82;95.24;97114.53;4983184;28;20531;-71
2021/07/13 05:55:25;;;;;;;3.97;3.73;;;;;;;18.79;95.28;97113.97;4982026;28;20216;-71
2021/07/13 05:57:53;;;;;;;5.00;4.60;;;;;;;18.85;94.79;97114.84;4982132;28;20702;-71
2021/07/13 06:00:22;;;;;;;4.63;4.33;;;;;;;18.85;94.69;97112.16;4979665;28;20209;-68
2021/07/13 06:02:51;;;;;;;4.73;4.30;;;;;;;18.75;94.02;97099.41;4983272;28;20233;-70
2021/07/13 06:05:19;;;;;;;5.63;4.90;;;;;;;18.78;93.56;97092.72;4977329;28;20217;-69
2021/07/13 06:07:48;;;;;;;5.03;4.73;;;;;;;18.75;94.41;97087.81;4985120;28;20297;-68
2021/07/13 06:10:18;;;;;;;4.60;4.20;;;;;;;18.90;94.13;97090.00;4981599;28;20298;-71
2021/07/13 06:12:46;;;;;;;4.47;4.10;;;;;;;18.88;92.23;97094.78;4982229;28;20232;-70
2021/07/13 06:15:15;;;;;;;5.30;4.80;;;;;;;18.95;92.11;97090.09;4978556;28;20623;-70
2021/07/13 06:17:44;;;;;;;4.97;4.53;;;;;;;19.02;90.75;97089.97;4981255;28;20720;-70
2021/07/13 06:20:15;;;;;;;4.57;4.03;;;;;;;19.37;88.08;97083.59;4985048;28;20202;-69
2021/07/13 06:22:43;;;;;;;5.00;4.60;;;;;;;19.30;88.67;97083.75;4985911;28;20259;-70
2021/07/13 06:25:11;;;;;;;4.33;4.10;;;;;;;19.37;87.37;97081.72;4982192;28;20210;-69
2021/07/13 06:27:39;;;;;;;4.90;4.50;;;;;;;19.36;86.89;97085.47;4987728;28;20209;-70
2021/07/13 06:30:09;;;;;;;4.47;4.17;;;;;;;19.37;87.16;97089.78;4979837;28;20210;-70
2021/07/13 06:32:37;;;;;;;4.40;4.00;;;;;;;19.37;87.60;97095.16;4991385;28;20225;-68
2021/07/13 06:35:06;;;;;;;4.60;4.30;;;;;;;19.35;87.98;97083.84;4986500;28;20201;-70
2021/07/13 06:37:36;;;;;;;4.03;3.83;;;;;;;19.36;86.27;97093.53;4983845;28;20261;-69
2021/07/13 06:40:06;;;;;;;4.10;3.53;;;;;;;19.48;84.83;97090.75;4986730;28;20250;-69
2021/07/13 06:42:34;;;;;;;4.03;3.67;;;;;;;19.80;81.33;97083.97;4980335;28;20248;-71
2021/07/13 06:45:02;;;;;;;4.40;4.00;;;;;;;19.31;84.00;97080.00;4986850;28;20209;-69
2021/07/13 06:47:30;;;;;;;4.73;4.33;;;;;;;19.46;83.89;97078.63;4984178;28;20201;-70
2021/07/13 06:49:58;;;;;;;4.80;4.23;;;;;;;19.61;83.59;97092.31;4986971;28;20296;-70
2021/07/13 06:52:27;;;;;;;3.57;3.37;;;;;;;19.38;84.72;97095.97;4983056;28;20245;-70
2021/07/13 06:54:56;;;;;;;4.67;3.90;;;;;;;19.52;85.66;97091.91;4986856;28;20977;-69
2021/07/13 06:57:24;;;;;;;4.10;3.80;;;;;;;19.89;82.54;97103.22;4985296;28;20237;-72
2021/07/13 06:59:53;;;;;;;4.50;4.10;;;;;;;20.10;81.40;97094.41;4985362;28;20205;-70
2021/07/13 07:02:21;;;;;;;4.00;3.37;;;;;;;20.23;81.44;97093.22;4984624;28;20292;-71
2021/07/13 07:04:49;;;;;;;4.70;3.83;;;;;;;20.35;81.51;97082.34;4983149;28;20510;-70
2021/07/13 07:07:17;;;;;;;4.57;4.17;;;;;;;20.71;77.47;97079.28;4982929;28;20303;-69
2021/07/13 07:09:46;;;;;;;4.30;4.10;;;;;;;20.59;79.32;97059.75;4983283;28;20217;-68
2021/07/13 07:12:16;;;;;;;4.90;4.50;;;;;;;20.26;78.78;97062.34;4985428;28;20228;-70
2021/07/13 07:14:44;;;;;;;5.23;4.10;;;;;;;20.15;81.11;97061.38;4984662;28;20220;-68
2021/07/13 07:17:12;;;;;;;5.93;4.70;;;;;;;20.18;81.09;97066.25;4980115;28;20236;-67
2021/07/13 07:19:40;;;;;;;4.87;4.37;;;;;;;20.16;81.35;97056.84;4985670;28;20787;-69
2021/07/13 07:22:08;;;;;;;5.20;4.80;;;;;;;20.18;81.32;97046.63;4983626;28;20288;-71
2021/07/13 07:24:36;;;;;;;5.17;4.23;;;;;;;20.28;79.83;97051.34;4984023;28;20202;-70
2021/07/13 07:27:04;;;;;;;5.37;4.37;;;;;;;20.23;81.30;97047.50;4985983;28;20282;-71
2021/07/13 07:29:34;;;;;;;4.90;4.40;;;;;;;20.68;78.14;97050.19;4982575;28;20213;-69
2021/07/13 07:32:02;;;;;;;5.63;4.90;;;;;;;20.66;77.22;97044.25;4985574;28;20208;-70
2021/07/13 07:34:30;;;;;;;4.43;4.03;;;;;;;20.63;78.80;97050.09;4985419;28;20217;-70
2021/07/13 07:36:58;;;;;;;6.13;4.53;;;;;;;20.72;77.17;97040.53;4982031;28;20288;-69
2021/07/13 07:39:26;;;;;;;4.57;4.27;;;;;;;20.93;77.15;97041.59;4983194;28;20210;-69
2021/07/13 07:41:54;;;;;;;4.60;4.30;;;;;;;20.84;77.17;97036.91;4983154;28;20221;-69
2021/07/13 07:44:23;;;;;;;4.60;4.33;;;;;;;20.97;76.43;97031.09;4983326;28;20260;-68
2021/07/13 07:46:53;;;;;;;5.00;4.67;;;;;;;21.02;78.45;97033.03;4986215;28;20205;-68
2021/07/13 07:49:21;;;;;;;5.47;4.70;;;;;;;20.99;77.31;97028.16;4981028;28;20202;-69
2021/07/13 07:51:49;;;;;;;4.47;4.17;;;;;;;20.93;77.96;97022.72;4987353;28;20315;-69
2021/07/13 07:54:18;;;;;;;4.43;4.03;;;;;;;21.22;75.99;97019.75;4982699;28;20230;-69
2021/07/13 07:56:46;;;;;;;4.30;4.00;;;;;;;21.34;75.34;97014.16;4985023;28;20579;-70
2021/07/13 07:59:15;;;;;;;4.13;3.83;;;;;;;21.44;75.31;97012.66;4986384;28;20252;-70
2021/07/13 08:01:43;;;;;;;4.30;4.03;;;;;;;21.44;75.62;97018.03;4984662;28;20655;-70
2021/07/13 08:04:12;;;;;;;4.73;4.37;;;;;;;21.47;74.51;97025.59;4981928;28;20461;-67
2021/07/13 08:06:40;;;;;;;4.50;4.10;;;;;;;21.33;75.85;97033.31;4985175;28;20417;-71
2021/07/13 08:09:08;;;;;;;4.07;3.87;;;;;;;21.57;76.24;97041.84;4982659;28;20205;-70
2021/07/13 08:11:37;;;;;;;4.33;4.00;;;;;;;21.64;74.24;97038.97;4984003;28;20205;-69
2021/07/13 08:14:06;;;;;;;4.00;3.80;;;;;;;21.69;74.98;97045.19;4984108;28;20244;-70
2021/07/13 08:16:35;;;;;;;3.80;3.60;;;;;;;21.71;75.74;97042.22;4983713;28;20214;-71
2021/07/13 08:19:04;;;;;;;4.43;4.23;;;;;;;21.77;74.46;97046.59;4985888;28;20201;-67
2021/07/13 08:21:38;;;;;;;6.23;3.80;;;;;;;22.02;75.13;97049.69;4983589;28;20209;-69
2021/07/13 08:24:08;;;;;;;4.37;4.17;;;;;;;21.96;74.46;97044.28;4976365;28;20233;-70
2021/07/13 08:26:36;;;;;;;4.30;4.00;;;;;;;22.19;72.66;97052.22;4982041;28;20881;-69
2021/07/13 08:29:05;;;;;;;4.93;4.57;;;;;;;22.13;73.54;97048.66;4983842;28;20214;-69
2021/07/13 08:31:33;;;;;;;4.33;4.03;;;;;;;22.07;73.50;97055.09;4982772;28;20210;-69
2021/07/13 08:34:02;;;;;;;5.43;4.50;;;;;;;22.25;72.56;97053.84;4978925;28;20316;-70
2021/07/13 08:36:30;;;;;;;4.03;3.70;;;;;;;22.40;73.39;97051.22;4983498;28;20216;-70
2021/07/13 08:38:59;;;;;;;6.03;3.80;;;;;;;22.52;73.28;97052.91;4986079;28;20826;-69
2021/07/13 08:41:30;;;;;;;4.63;4.27;;;;;;;22.50;71.62;97047.78;4980080;28;20206;-69
2021/07/13 08:43:59;;;;;;;4.43;4.13;;;;;;;22.42;71.68;97040.16;4980436;28;20249;-69
2021/07/13 08:46:27;;;;;;;4.37;4.07;;;;;;;22.33;74.56;97066.03;4987824;28;20216;-70
2021/07/13 08:48:56;;;;;;;8.60;4.60;;;;;;;22.63;73.10;97069.97;4983984;28;20635;-68
2021/07/13 08:51:24;;;;;;;4.47;4.17;;;;;;;22.94;71.37;97075.47;4981193;28;20212;-70
2021/07/13 08:53:52;;;;;;;4.80;4.50;;;;;;;23.16;68.08;97071.69;4982232;28;20232;-72
2021/07/13 08:56:22;;;;;;;5.60;4.10;;;;;;;23.06;69.51;97075.19;4977751;28;20217;-70
2021/07/13 08:58:50;;;;;;;4.87;4.40;;;;;;;23.30;69.14;97072.84;4986489;28;20296;-71
2021/07/13 09:01:17;;;;;;;5.90;5.40;;;;;;;23.57;65.52;97079.84;4981830;28;20206;-70
2021/07/13 09:03:57;;;;;;;4.73;4.47;;;;;;;23.63;67.83;97077.97;4981359;28;20737;-72
2021/07/13 09:06:26;;;;;;;4.33;4.13;;;;;;;24.18;65.57;97075.47;4980897;28;20209;-70
2021/07/13 09:08:54;;;;;;;4.53;4.23;;;;;;;24.34;64.42;97075.41;4981419;28;20206;-72
2021/07/13 09:11:23;;;;;;;4.77;4.50;;;;;;;24.72;63.67;97083.91;4981185;28;20206;-71
2021/07/13 09:13:53;;;;;;;4.70;4.40;;;;;;;24.67;63.93;97081.22;4977397;28;20930;-71
2021/07/13 09:16:23;;;;;;;4.87;4.67;;;;;;;25.11;59.84;97075.03;4983529;28;20591;-70
2021/07/13 09:18:54;;;;;;;6.57;4.43;;;;;;;24.95;60.25;97070.81;4983259;28;20284;-70
2021/07/13 09:21:24;;;;;;;5.17;4.67;;;;;;;24.69;61.03;97073.63;4981784;28;20205;-69
2021/07/13 09:24:09;;;;;;;5.13;4.83;;;;;;;24.30;64.13;97063.50;4985195;28;20300;-70
2021/07/13 09:26:47;;;;;;;5.30;4.80;;;;;;;24.35;62.34;97071.59;4978784;28;20201;-71
2021/07/13 09:29:36;;;;;;;4.60;4.30;;;;;;;24.27;65.04;97068.41;4977320;28;20222;-68
2021/07/13 09:32:26;;;;;;;5.23;4.90;;;;;;;24.35;62.71;97080.56;4983443;28;20207;-71
2021/07/13 09:34:56;;;;;;;4.40;4.00;;;;;;;24.30;63.30;97075.16;4981495;28;20213;-71
2021/07/13 09:37:26;;;;;;;5.03;4.63;;;;;;;24.21;63.16;97063.25;4985109;28;20681;-70
2021/07/13 09:39:59;;;;;;;5.03;4.60;;;;;;;23.99;64.70;97065.19;4982624;28;20590;-72
2021/07/13 09:42:30;;;;;;;5.37;4.97;;;;;;;23.86;65.83;97073.88;4975771;28;20234;-71
2021/07/13 09:45:20;;;;;;;5.37;4.50;;;;;;;24.09;65.55;97071.72;4981887;28;20268;-72
2021/07/13 09:47:49;;;;;;;5.17;4.77;;;;;;;24.21;65.23;97076.78;4979345;28;20206;-71
2021/07/13 09:50:40;;;;;;;5.27;4.50;;;;;;;23.99;63.42;97081.41;4981317;28;20201;-70
2021/07/13 09:53:10;;;;;;;5.73;4.70;;;;;;;24.03;62.60;97084.44;4982559;28;20225;-70
2021/07/13 09:55:39;;;;;;;4.77;4.43;;;;;;;24.12;62.59;97088.19;4980447;28;20349;-71
2021/07/13 09:58:16;;;;;;;5.67;4.73;;;;;;;24.43;62.06;97090.00;4982222;28;20489;-69
2021/07/13 10:00:46;;;;;;;5.07;4.70;;;;;;;24.25;62.40;97083.31;4982337;28;20213;-69
2021/07/13 10:03:16;;;;;;;4.43;4.13;;;;;;;24.26;62.34;97082.22;4987467;28;20329;-70
2021/07/13 10:05:45;;;;;;;5.07;4.67;;;;;;;24.26;62.70;97076.81;4984936;28;20482;-70
2021/07/13 10:08:14;;;;;;;5.53;5.20;;;;;;;24.48;62.57;97081.88;4980153;28;20206;-69
2021/07/13 10:10:43;;;;;;;5.00;4.70;;;;;;;24.72;61.59;97067.66;4987864;28;20610;-69
2021/07/13 10:13:14;;;;;;;5.03;4.60;;;;;;;24.67;62.11;97081.22;4983965;28;20225;-68
2021/07/13 10:15:42;;;;;;;5.47;5.07;;;;;;;24.62;62.24;97071.22;4986347;28;20214;-69
2021/07/13 10:18:10;;;;;;;4.90;4.60;;;;;;;24.80;62.66;97061.69;4987529;28;20225;-70
2021/07/13 10:20:39;;;;;;;5.17;4.77;;;;;;;24.83;62.09;97050.31;4985285;28;20209;-70
2021/07/13 10:23:09;;;;;;;4.80;4.40;;;;;;;25.11;60.13;97045.22;4985855;28;20229;-70
2021/07/13 10:25:38;;;;;;;5.40;5.10;;;;;;;24.97;59.61;97047.75;4981467;28;20212;-69
2021/07/13 10:28:07;;;;;;;5.20;4.70;;;;;;;24.94;60.15;97042.09;4983252;28;20645;-69
2021/07/13 10:30:39;;;;;;;4.63;4.43;;;;;;;24.85;59.91;97037.28;4984810;28;20581;-70
2021/07/13 10:33:26;;;;;;;4.97;4.57;;;;;;;25.02;59.30;97035.28;4983843;28;20221;-69
2021/07/13 10:35:55;;;;;;;5.07;4.77;;;;;;;25.39;58.04;97034.72;4987510;28;20488;-68
2021/07/13 10:38:24;;;;;;;5.07;4.77;;;;;;;25.55;57.37;97043.56;4981364;28;20229;-69
2021/07/13 10:40:54;;;;;;;4.93;4.63;;;;;;;25.47;58.47;97046.91;4982657;28;20242;-71
2021/07/13 10:43:23;;;;;;;5.10;4.80;;;;;;;25.33;58.57;97044.00;4984034;28;20241;-70
2021/07/13 10:46:07;;;;;;;4.93;4.60;;;;;;;25.63;59.72;97031.28;4982839;28;20210;-70
2021/07/13 10:48:37;;;;;;;5.50;5.00;;;;;;;26.01;58.10;97036.88;4983894;28;20669;-69
2021/07/13 10:51:07;;;;;;;4.97;4.70;;;;;;;26.01;57.34;97042.31;4981707;28;20229;-70
2021/07/13 10:53:39;;;;;;;4.97;4.70;;;;;;;25.79;58.66;97050.13;4985406;28;20607;-69
2021/07/13 10:56:13;;;;;;;6.03;5.53;;;;;;;25.90;58.26;97056.28;4982740;28;20610;-71
2021/07/13 10:58:51;;;;;;;5.50;5.00;;;;;;;25.25;59.22;97052.75;4985729;28;20229;-69
2021/07/13 11:01:32;;;;;;;5.63;5.00;;;;;;;25.41;58.46;97054.22;4984070;28;20217;-68
2021/07/13 11:04:12;;;;;;;5.00;4.70;;;;;;;25.06;58.84;97052.59;4984926;28;20221;-70
2021/07/13 11:06:53;;;;;;;5.10;4.60;;;;;;;25.37;58.35;97052.34;4981214;28;20924;-70
2021/07/13 11:09:24;;;;;;;4.70;4.43;;;;;;;24.90;60.49;97068.16;4983077;28;20202;-71
2021/07/13 11:11:53;;;;;;;4.57;4.37;;;;;;;24.99;60.89;97069.97;4984963;28;20206;-70
2021/07/13 11:14:21;;;;;;;5.17;4.77;;;;;;;24.85;61.90;97075.22;4983543;28;20301;-71
2021/07/13 11:16:52;;;;;;;4.70;4.40;;;;;;;24.79;61.95;97070.91;4983505;28;20212;-72
2021/07/13 11:19:21;;;;;;;4.70;4.40;;;;;;;24.95;61.12;97066.19;4983003;28;20639;-69
2021/07/13 11:21:50;;;;;;;5.20;4.70;;;;;;;25.32;59.28;97063.25;4980581;28;20945;-70
2021/07/13 11:24:19;;;;;;;4.40;4.10;;;;;;;25.48;58.96;97070.22;4986111;28;20240;-71
2021/07/13 11:26:49;;;;;;;4.27;4.07;;;;;;;25.41;59.06;97081.34;4984302;28;20212;-72
2021/07/13 11:29:20;;;;;;;4.40;4.10;;;;;;;24.98;59.36;97087.31;4980965;28;20288;-73
2021/07/13 11:31:52;;;;;;;4.70;4.37;;;;;;;24.85;60.55;97088.78;4984081;28;20242;-70
2021/07/13 11:34:22;;;;;;;3.80;3.60;;;;;;;24.90;60.38;97087.91;4983832;28;20209;-72
2021/07/13 11:36:52;;;;;;;4.67;4.27;;;;;;;25.14;60.26;97096.16;4984622;28;20210;-70
2021/07/13 11:39:25;;;;;;;4.20;4.00;;;;;;;25.16;59.57;97093.19;4989197;28;20220;-70
2021/07/13 11:41:54;;;;;;;4.53;4.23;;;;;;;25.78;57.81;97094.63;4983190;28;20211;-69